Time;durP1;ratioP1;P1;durP2;ratioP2;P2;SDS_P1;SDS_P2;PMS_P1;PMS_P2;Temp;Humidity;BMP_temperature;BMP_pressure;BME280_temperature;BME280_humidity;BME280_pressure;Samples;Min_cycle;Max_cycle;Signal;HPM_P1;HPM_P2
2022/01/11 00:01:14;;;;;;;;;;;;;;;2.08;54.86;100100.47;5300804;27;35127;-90
2022/01/11 00:03:46;;;;;;;;;;;;;;;2.05;54.83;100108.06;5311836;27;34902;-89
2022/01/11 00:06:27;;;;;;;;;;;;;;;2.21;54.28;100104.22;5314147;27;33406;-89
2022/01/11 00:09:01;;;;;;;;;;;;;;;2.08;54.27;100108.16;5312702;27;34624;-89
2022/01/11 00:11:30;;;;;;;;;;;;;;;1.85;55.10;100107.50;5315441;27;33916;-89
2022/01/11 00:13:58;;;;;;;;;;;;;;;2.19;53.62;100105.88;5319568;27;31719;-89
2022/01/11 00:16:30;;;;;;;;;;;;;;;1.99;54.24;100119.00;5320463;27;34064;-89
2022/01/11 00:19:05;;;;;;;;;;;;;;;1.90;54.53;100119.59;5313006;27;34101;-89
2022/01/11 00:21:34;;;;;;;;;;;;;;;2.07;53.97;100120.06;5295543;27;32373;-88
2022/01/11 00:26:50;;;;;;;;;;;;;;;2.13;54.01;100120.25;5291070;27;31960;-87
2022/01/11 00:29:18;;;;;;;;;;;;;;;2.34;52.43;100116.53;5297367;27;34102;-87
2022/01/11 00:31:48;;;;;;;;;;;;;;;2.43;52.59;100124.44;5294641;27;34574;-88
2022/01/11 00:34:19;;;;;;;;;;;;;;;2.62;51.76;100127.50;5273813;27;33906;-88
2022/01/11 00:36:48;;;;;;;;;;;;;;;2.14;52.77;100132.22;5292829;27;34107;-87
2022/01/11 00:39:18;;;;;;;;;;;;;;;1.96;53.45;100141.94;5292558;27;34924;-87
2022/01/11 00:41:46;;;;;;;;;;;;;;;2.04;53.44;100144.72;5291483;27;34864;-87
2022/01/11 00:44:15;;;;;;;;;;;;;;;2.17;53.34;100143.34;5298835;27;34866;-87
2022/01/11 00:46:44;;;;;;;;;;;;;;;2.42;52.03;100152.59;5292551;27;32976;-87
2022/01/11 00:49:13;;;;;;;;;;;;;;;2.28;51.80;100153.06;5291482;27;33930;-87
2022/01/11 00:51:41;;;;;;;;;;;;;;;2.51;51.36;100156.28;5292287;27;34051;-87
2022/01/11 00:54:10;;;;;;;;;;;;;;;2.37;51.62;100155.03;5291937;27;34025;-87
2022/01/11 00:56:39;;;;;;;;;;;;;;;2.08;52.59;100155.09;5298518;27;33523;-87
2022/01/11 00:59:08;;;;;;;;;;;;;;;2.15;52.47;100156.13;5271249;27;34511;-87
2022/01/11 01:01:37;;;;;;;;;;;;;;;2.43;51.68;100162.00;5272893;27;34511;-87
2022/01/11 01:04:09;;;;;;;;;;;;;;;2.47;51.52;100162.13;5291903;27;34541;-87
2022/01/11 01:06:39;;;;;;;;;;;;;;;2.43;51.22;100167.97;5292654;27;33976;-87
2022/01/11 01:09:08;;;;;;;;;;;;;;;2.05;52.63;100166.91;5299536;27;33961;-87
2022/01/11 01:11:37;;;;;;;;;;;;;;;2.07;53.05;100173.81;5272949;27;33729;-87
2022/01/11 01:14:07;;;;;;;;;;;;;;;2.40;51.76;100178.16;5293196;27;33663;-87
2022/01/11 01:16:36;;;;;;;;;;;;;;;2.16;52.36;100174.91;5292798;27;33110;-87
2022/01/11 01:19:06;;;;;;;;;;;;;;;2.22;52.31;100182.75;5272720;27;35030;-87
2022/01/11 01:21:38;;;;;;;;;;;;;;;1.95;52.86;100186.25;5292560;27;35082;-86
2022/01/11 01:24:07;;;;;;;;;;;;;;;1.72;53.71;100183.00;5297681;27;34122;-86
2022/01/11 01:26:39;;;;;;;;;;;;;;;2.16;52.18;100180.03;5299222;27;33870;-87
2022/01/11 01:29:09;;;;;;;;;;;;;;;1.89;52.75;100191.19;5331298;26;34513;-87
2022/01/11 01:31:37;;;;;;;;;;;;;;;2.50;49.41;100190.38;5314644;27;35008;-87
2022/01/11 01:34:06;;;;;;;;;;;;;;;2.55;48.52;100191.34;5314461;27;33984;-87
2022/01/11 01:36:35;;;;;;;;;;;;;;;2.36;48.88;100194.25;5319646;27;32902;-87
2022/01/11 01:39:04;;;;;;;;;;;;;;;2.69;48.05;100190.88;5294618;27;34853;-87
2022/01/11 01:41:32;;;;;;;;;;;;;;;2.79;47.69;100192.84;5314673;27;33945;-87
2022/01/11 01:44:02;;;;;;;;;;;;;;;1.81;51.20;100197.75;5314706;27;34681;-87
2022/01/11 01:46:32;;;;;;;;;;;;;;;2.41;50.14;100199.50;5314793;27;34316;-88
2022/01/11 01:49:02;;;;;;;;;;;;;;;2.33;49.24;100189.91;5321567;27;33560;-88
2022/01/11 01:51:30;;;;;;;;;;;;;;;3.06;47.47;100182.44;5314275;27;33387;-87
2022/01/11 01:53:59;;;;;;;;;;;;;;;2.87;47.80;100191.34;5313021;27;34206;-87
2022/01/11 01:56:28;;;;;;;;;;;;;;;2.58;49.71;100199.97;5314929;27;33409;-87
2022/01/11 01:58:56;;;;;;;;;;;;;;;2.94;48.62;100202.63;5294776;27;34982;-87
2022/01/11 02:01:26;;;;;;;;;;;;;;;3.01;49.12;100196.84;5296186;27;34611;-87
2022/01/11 02:03:57;;;;;;;;;;;;;;;2.70;49.73;100196.03;5301111;27;34001;-87
2022/01/11 02:06:25;;;;;;;;;;;;;;;3.27;48.70;100192.34;5313473;27;33602;-87
2022/01/11 02:08:53;;;;;;;;;;;;;;;3.07;48.86;100202.13;5314388;27;34258;-87
2022/01/11 02:11:23;;;;;;;;;;;;;;;2.97;49.09;100197.56;5312872;27;33989;-87
2022/01/11 02:13:51;;;;;;;;;;;;;;;2.99;48.80;100204.47;5294137;27;33673;-87
2022/01/11 02:16:22;;;;;;;;;;;;;;;3.04;48.80;100196.91;5301082;27;34637;-87
2022/01/11 02:18:51;;;;;;;;;;;;;;;2.59;49.84;100204.28;5294627;27;33932;-87
2022/01/11 02:21:22;;;;;;;;;;;;;;;2.91;48.58;100203.41;5294462;27;34715;-87
2022/01/11 02:23:50;;;;;;;;;;;;;;;2.74;48.88;100204.69;5313192;27;34719;-87
2022/01/11 02:26:20;;;;;;;;;;;;;;;2.33;49.27;100204.41;5314715;27;33509;-87
2022/01/11 02:28:50;;;;;;;;;;;;;;;2.68;48.11;100197.72;5321163;27;34827;-88
2022/01/11 02:31:19;;;;;;;;;;;;;;;2.85;48.26;100195.59;5314289;27;34451;-87
2022/01/11 02:33:49;;;;;;;;;;;;;;;2.60;48.76;100206.00;5293447;27;34576;-88
2022/01/11 02:36:22;;;;;;;;;;;;;;;2.66;49.07;100208.72;5294298;27;33231;-87
2022/01/11 02:38:55;;;;;;;;;;;;;;;3.15;48.17;100217.69;5314841;27;34683;-87
2022/01/11 02:41:24;;;;;;;;;;;;;;;2.74;49.16;100209.81;5294556;27;34571;-88
2022/01/11 02:43:53;;;;;;;;;;;;;;;2.67;49.13;100208.75;5301181;27;34267;-87
2022/01/11 02:46:22;;;;;;;;;;;;;;;2.80;49.36;100212.50;5317394;27;33009;-88
2022/01/11 02:48:52;;;;;;;;;;;;;;;2.46;51.05;100220.97;5294567;27;35268;-88
2022/01/11 02:51:21;;;;;;;;;;;;;;;2.19;52.60;100223.63;5294595;27;34644;-88
2022/01/11 02:53:51;;;;;;;;;;;;;;;2.05;53.41;100215.53;5294519;27;35379;-87
2022/01/11 02:56:21;;;;;;;;;;;;;;;1.66;54.59;100219.47;5319180;27;33441;-88
2022/01/11 02:58:49;;;;;;;;;;;;;;;1.66;54.55;100222.03;5314213;27;33128;-87
2022/01/11 03:01:18;;;;;;;;;;;;;;;1.27;55.90;100222.50;5293274;27;33969;-87
2022/01/11 03:03:47;;;;;;;;;;;;;;;1.59;55.09;100224.38;5317063;27;33977;-87
2022/01/11 03:06:16;;;;;;;;;;;;;;;1.11;56.44;100220.25;5314478;27;33506;-88
2022/01/11 03:08:46;;;;;;;;;;;;;;;1.04;56.85;100220.91;5319465;27;34910;-87
2022/01/11 03:11:18;;;;;;;;;;;;;;;0.99;56.85;100225.84;5314075;27;34077;-87
2022/01/11 03:13:48;;;;;;;;;;;;;;;0.80;57.48;100233.69;5313041;27;34883;-86
2022/01/11 03:16:17;;;;;;;;;;;;;;;0.61;58.46;100240.72;5312461;27;33648;-86
2022/01/11 03:18:46;;;;;;;;;;;;;;;0.54;58.76;100243.00;5313997;27;34882;-87
2022/01/11 03:21:15;;;;;;;;;;;;;;;0.17;60.14;100244.16;5295406;27;34559;-87
2022/01/11 03:23:44;;;;;;;;;;;;;;;0.18;60.30;100259.53;5300251;27;33978;-86
2022/01/11 03:26:12;;;;;;;;;;;;;;;0.08;60.66;100244.72;5310109;27;98739;-86
2022/01/11 03:28:42;;;;;;;;;;;;;;;0.25;60.39;100255.56;5314016;27;33872;-86
2022/01/11 03:31:11;;;;;;;;;;;;;;;0.55;59.06;100244.72;5314083;27;33995;-86
2022/01/11 03:33:40;;;;;;;;;;;;;;;0.26;59.65;100247.06;5314509;27;33326;-86
2022/01/11 03:36:09;;;;;;;;;;;;;;;0.25;60.08;100259.78;5318762;27;32794;-86
2022/01/11 03:38:37;;;;;;;;;;;;;;;0.49;59.41;100252.16;5294506;27;34253;-86
2022/01/11 03:41:06;;;;;;;;;;;;;;;0.58;58.91;100262.69;5294244;27;33149;-87
2022/01/11 03:43:35;;;;;;;;;;;;;;;0.65;58.73;100257.00;5313027;27;34122;-86
2022/01/11 03:46:04;;;;;;;;;;;;;;;0.60;58.71;100258.50;5313916;27;33133;-86
2022/01/11 03:48:34;;;;;;;;;;;;;;;0.57;58.76;100258.41;5300727;27;34151;-86
2022/01/11 03:51:03;;;;;;;;;;;;;;;0.49;58.82;100257.28;5312790;27;34491;-86
2022/01/11 03:53:44;;;;;;;;;;;;;;;0.74;58.25;100261.56;5313946;27;34587;-86
2022/01/11 03:56:22;;;;;;;;;;;;;;;0.64;58.59;100260.38;5314556;27;33213;-86
2022/01/11 03:58:52;;;;;;;;;;;;;;;0.59;58.39;100267.84;5313652;27;33831;-86
2022/01/11 04:01:21;;;;;;;;;;;;;;;0.91;57.54;100272.38;5313648;27;34217;-86
2022/01/11 04:03:52;;;;;;;;;;;;;;;0.60;58.32;100278.94;5321021;27;34092;-86
2022/01/11 04:06:20;;;;;;;;;;;;;;;0.27;59.02;100289.66;5313581;27;33305;-85
2022/01/11 04:08:48;;;;;;;;;;;;;;;0.53;58.38;100282.06;5313676;27;35028;-85
2022/01/11 04:11:17;;;;;;;;;;;;;;;0.57;58.36;100286.50;5313502;27;34301;-85
2022/01/11 04:13:47;;;;;;;;;;;;;;;0.35;59.00;100280.59;5313629;27;34736;-85
2022/01/11 04:16:15;;;;;;;;;;;;;;;0.39;58.70;100285.00;5320044;27;33193;-85
2022/01/11 04:18:44;;;;;;;;;;;;;;;0.18;59.33;100291.84;5315607;27;33753;-85
2022/01/11 04:21:14;;;;;;;;;;;;;;;0.24;59.25;100292.06;5313775;27;34273;-85
2022/01/11 04:23:43;;;;;;;;;;;;;;;0.19;59.33;100301.22;5314266;27;33444;-84
2022/01/11 04:26:12;;;;;;;;;;;;;;;0.23;58.99;100292.91;5313779;27;34206;-86
2022/01/11 04:28:40;;;;;;;;;;;;;;;-0.12;60.27;100283.88;5313302;27;34127;-85
2022/01/11 04:31:09;;;;;;;;;;;;;;;0.08;59.47;100293.19;5320563;27;34856;-85
2022/01/11 04:33:42;;;;;;;;;;;;;;;0.10;59.19;100298.34;5313611;27;34077;-85
2022/01/11 04:36:11;;;;;;;;;;;;;;;0.11;58.99;100297.53;5313977;27;33828;-85
2022/01/11 04:38:41;;;;;;;;;;;;;;;-0.02;58.57;100306.41;5293234;27;33045;-85
2022/01/11 04:41:10;;;;;;;;;;;;;;;0.16;57.97;100309.62;5313384;27;34195;-85
2022/01/11 04:43:38;;;;;;;;;;;;;;;0.19;57.74;100314.00;5320658;27;34592;-85
2022/01/11 04:46:07;;;;;;;;;;;;;;;-0.03;58.43;100317.38;5313259;27;34148;-86
2022/01/11 04:48:36;;;;;;;;;;;;;;;-0.33;59.53;100312.81;5314645;27;34665;-86
2022/01/11 04:51:05;;;;;;;;;;;;;;;0.07;58.24;100328.81;5293648;27;34287;-85
2022/01/11 04:53:34;;;;;;;;;;;;;;;-0.06;58.60;100333.44;5313557;27;34332;-85
2022/01/11 04:56:04;;;;;;;;;;;;;;;0.21;57.48;100328.53;5320901;27;33300;-85
2022/01/11 04:58:33;;;;;;;;;;;;;;;-0.32;58.69;100336.63;5314540;27;33871;-85
2022/01/11 05:01:01;;;;;;;;;;;;;;;-0.06;58.42;100327.47;5314408;27;34742;-84
2022/01/11 05:03:30;;;;;;;;;;;;;;;-0.07;58.47;100339.38;5314856;27;34506;-84
2022/01/11 05:05:59;;;;;;;;;;;;;;;0.01;58.14;100341.34;5314329;27;33540;-85
2022/01/11 05:08:29;;;;;;;;;;;;;;;-0.09;58.36;100343.53;5318530;27;34454;-85
2022/01/11 05:10:57;;;;;;;;;;;;;;;-0.11;58.62;100355.34;5320394;27;35036;-85
2022/01/11 05:13:27;;;;;;;;;;;;;;;-0.41;59.59;100359.19;5314458;27;33788;-84
2022/01/11 05:15:56;;;;;;;;;;;;;;;-0.52;59.64;100361.28;5314517;27;32825;-84
2022/01/11 05:18:24;;;;;;;;;;;;;;;-0.43;59.65;100362.56;5314470;27;34572;-85
2022/01/11 05:20:53;;;;;;;;;;;;;;;-0.44;59.73;100371.00;5313039;27;34227;-84
2022/01/11 05:23:21;;;;;;;;;;;;;;;-0.69;60.11;100365.69;5321022;27;34331;-85
2022/01/11 05:25:50;;;;;;;;;;;;;;;-0.46;59.42;100361.53;5315045;27;34030;-85
2022/01/11 05:28:18;;;;;;;;;;;;;;;-0.52;59.56;100372.34;5315864;27;34695;-85
2022/01/11 05:30:48;;;;;;;;;;;;;;;-0.36;58.58;100373.88;5314447;27;34841;-85
2022/01/11 05:33:17;;;;;;;;;;;;;;;-0.41;59.00;100382.13;5314448;27;33930;-86
2022/01/11 05:35:46;;;;;;;;;;;;;;;-0.27;58.86;100383.56;5301404;27;33465;-85
2022/01/11 05:38:15;;;;;;;;;;;;;;;-0.12;58.37;100389.31;5314942;27;34083;-85
2022/01/11 05:40:44;;;;;;;;;;;;;;;-0.14;58.60;100396.03;5314143;27;34127;-85
2022/01/11 05:43:14;;;;;;;;;;;;;;;-0.04;58.34;100402.38;5314603;27;34282;-85
2022/01/11 05:45:44;;;;;;;;;;;;;;;0.14;57.56;100403.09;5314464;27;33513;-85
2022/01/11 05:48:14;;;;;;;;;;;;;;;-0.37;58.98;100401.84;5321559;27;34215;-85
2022/01/11 05:50:43;;;;;;;;;;;;;;;-0.11;58.19;100408.91;5315443;27;34265;-86
2022/01/11 05:53:12;;;;;;;;;;;;;;;-0.25;58.39;100417.66;5314330;27;33485;-85
2022/01/11 05:55:41;;;;;;;;;;;;;;;-0.04;57.78;100413.44;5320048;27;33616;-83
2022/01/11 05:58:14;;;;;;;;;;;;;;;-0.13;58.38;100420.72;5318414;27;32389;-85
2022/01/11 06:00:43;;;;;;;;;;;;;;;-0.31;58.83;100419.97;5294394;27;35148;-85
2022/01/11 06:03:12;;;;;;;;;;;;;;;-0.22;58.80;100425.44;5321709;27;33804;-87
2022/01/11 06:05:42;;;;;;;;;;;;;;;-0.52;59.30;100427.56;5313082;27;33293;-85
2022/01/11 06:08:16;;;;;;;;;;;;;;;-0.07;57.79;100423.53;5295793;27;35214;-85
2022/01/11 06:10:45;;;;;;;;;;;;;;;-0.04;57.35;100436.41;5317731;27;35033;-86
2022/01/11 06:13:13;;;;;;;;;;;;;;;-0.01;56.56;100433.09;5293786;27;35214;-85
2022/01/11 06:15:42;;;;;;;;;;;;;;;0.38;55.21;100440.63;5320905;27;33166;-84
2022/01/11 06:18:11;;;;;;;;;;;;;;;0.18;55.52;100442.41;5313928;27;34953;-85
2022/01/11 06:20:39;;;;;;;;;;;;;;;-0.25;55.30;100448.25;5314565;27;33839;-84
2022/01/11 06:23:10;;;;;;;;;;;;;;;0.30;54.06;100450.53;5293307;27;34151;-84
2022/01/11 06:25:40;;;;;;;;;;;;;;;0.18;54.25;100455.16;5313790;27;33138;-84
2022/01/11 06:28:08;;;;;;;;;;;;;;;0.11;53.69;100464.22;5320060;27;34228;-84
2022/01/11 06:30:37;;;;;;;;;;;;;;;0.13;53.48;100469.41;5315993;27;34182;-85
2022/01/11 06:33:06;;;;;;;;;;;;;;;0.17;52.99;100466.16;5313493;27;34231;-84
2022/01/11 06:35:34;;;;;;;;;;;;;;;0.84;50.73;100468.81;5312969;27;33995;-85
2022/01/11 06:38:03;;;;;;;;;;;;;;;0.21;52.82;100479.09;5314356;27;34962;-84
2022/01/11 06:40:34;;;;;;;;;;;;;;;0.71;51.22;100489.59;5313935;27;34765;-83
2022/01/11 06:43:03;;;;;;;;;;;;;;;0.73;50.91;100492.22;5319456;27;34315;-84
2022/01/11 06:45:31;;;;;;;;;;;;;;;1.04;50.05;100494.28;5313656;27;33598;-84
2022/01/11 06:48:01;;;;;;;;;;;;;;;0.90;50.14;100498.00;5314303;27;35113;-85
2022/01/11 06:50:31;;;;;;;;;;;;;;;0.78;50.70;100498.37;5312963;27;34004;-85
2022/01/11 06:53:00;;;;;;;;;;;;;;;0.85;50.48;100498.69;5314335;27;34238;-85
2022/01/11 06:55:29;;;;;;;;;;;;;;;0.77;49.79;100507.72;5301177;27;31161;-85
2022/01/11 06:58:00;;;;;;;;;;;;;;;1.07;48.88;100502.06;5314068;27;33807;-85
2022/01/11 07:00:29;;;;;;;;;;;;;;;0.60;50.75;100512.19;5306742;27;35655;-84
2022/01/11 07:02:58;;;;;;;;;;;;;;;0.78;50.21;100512.03;5308168;27;34260;-85
2022/01/11 07:05:29;;;;;;;;;;;;;;;0.46;51.46;100513.31;5313905;27;33947;-85
2022/01/11 07:07:58;;;;;;;;;;;;;;;1.38;48.40;100521.13;5320098;27;34485;-85
2022/01/11 07:10:27;;;;;;;;;;;;;;;0.81;49.94;100518.94;5313667;27;35097;-85
2022/01/11 07:12:57;;;;;;;;;;;;;;;0.83;50.12;100519.88;5312999;27;34495;-85
2022/01/11 07:15:27;;;;;;;;;;;;;;;1.32;49.10;100526.00;5314324;27;33126;-85
2022/01/11 07:17:56;;;;;;;;;;;;;;;0.93;49.97;100527.06;5314776;27;34035;-85
2022/01/11 07:20:25;;;;;;;;;;;;;;;1.33;49.03;100532.81;5321241;27;33849;-85
2022/01/11 07:22:54;;;;;;;;;;;;;;;1.23;49.49;100531.59;5317140;27;34912;-85
2022/01/11 07:25:23;;;;;;;;;;;;;;;1.35;49.41;100538.87;5314163;27;34025;-85
2022/01/11 07:27:53;;;;;;;;;;;;;;;1.44;50.03;100531.56;5314170;27;33251;-85
2022/01/11 07:30:21;;;;;;;;;;;;;;;1.15;50.64;100549.22;5314250;27;33646;-85
2022/01/11 07:32:51;;;;;;;;;;;;;;;1.11;51.42;100547.34;5320534;27;34008;-85
2022/01/11 07:35:22;;;;;;;;;;;;;;;1.03;51.92;100549.59;5314550;27;32426;-84
2022/01/11 07:37:52;;;;;;;;;;;;;;;1.17;51.49;100552.72;5313969;27;33985;-85
2022/01/11 07:40:21;;;;;;;;;;;;;;;1.14;51.04;100552.59;5313819;27;34381;-85
2022/01/11 07:42:51;;;;;;;;;;;;;;;1.20;50.91;100559.63;5314599;27;33776;-85
2022/01/11 07:45:29;;;;;;;;;;;;;;;1.14;50.71;100552.59;5319298;27;33467;-85
2022/01/11 07:48:00;;;;;;;;;;;;;;;0.52;50.61;100556.94;5320683;27;33888;-85
2022/01/11 07:50:33;;;;;;;;;;;;;;;0.66;49.69;100546.44;5314218;27;34162;-84
2022/01/11 07:53:05;;;;;;;;;;;;;;;1.11;48.47;100549.03;5293994;27;34995;-85
2022/01/11 07:55:34;;;;;;;;;;;;;;;0.97;48.49;100553.62;5314302;27;33439;-85
2022/01/11 07:58:03;;;;;;;;;;;;;;;0.83;48.15;100561.59;5313784;27;33427;-85
2022/01/11 08:00:32;;;;;;;;;;;;;;;0.80;48.93;100546.16;5320790;27;34635;-85
2022/01/11 08:03:03;;;;;;;;;;;;;;;0.76;49.37;100557.06;5313944;27;34092;-85
2022/01/11 08:05:32;;;;;;;;;;;;;;;0.50;49.62;100550.03;5314080;27;32928;-86
2022/01/11 08:08:01;;;;;;;;;;;;;;;0.91;48.26;100553.38;5314481;27;33800;-85
2022/01/11 08:10:30;;;;;;;;;;;;;;;0.90;48.70;100556.75;5314052;27;34223;-85
2022/01/11 08:13:02;;;;;;;;;;;;;;;0.85;47.84;100570.19;5318751;27;34420;-86
2022/01/11 08:15:31;;;;;;;;;;;;;;;1.22;47.38;100568.22;5316991;27;32982;-86
2022/01/11 08:18:03;;;;;;;;;;;;;;;1.00;48.18;100571.63;5314205;27;33569;-86
2022/01/11 08:20:32;;;;;;;;;;;;;;;1.28;47.86;100573.56;5313557;27;33924;-86
2022/01/11 08:23:00;;;;;;;;;;;;;;;1.08;48.28;100575.34;5313632;27;34928;-86
2022/01/11 08:25:30;;;;;;;;;;;;;;;1.37;46.70;100573.03;5314144;27;33086;-86
2022/01/11 08:28:00;;;;;;;;;;;;;;;1.17;47.26;100574.84;5320168;27;34726;-86
2022/01/11 08:30:28;;;;;;;;;;;;;;;1.49;46.58;100571.81;5311950;27;35565;-86
2022/01/11 08:32:58;;;;;;;;;;;;;;;1.32;46.24;100572.00;5293093;27;34756;-86
2022/01/11 08:35:30;;;;;;;;;;;;;;;1.25;47.11;100576.00;5314923;27;32929;-86
2022/01/11 08:38:04;;;;;;;;;;;;;;;1.47;45.95;100587.91;5314951;27;34490;-86
2022/01/11 08:40:33;;;;;;;;;;;;;;;1.49;46.62;100586.28;5319939;27;34236;-86
2022/01/11 08:43:04;;;;;;;;;;;;;;;1.07;47.59;100594.06;5311316;27;34036;-86
2022/01/11 08:45:33;;;;;;;;;;;;;;;1.83;46.17;100598.62;5313263;27;32755;-86
2022/01/11 08:48:03;;;;;;;;;;;;;;;1.12;47.49;100599.34;5292660;27;35232;-86
2022/01/11 08:50:38;;;;;;;;;;;;;;;1.56;46.56;100603.59;5313620;27;35165;-86
2022/01/11 08:53:07;;;;;;;;;;;;;;;1.67;46.05;100606.59;5313663;27;35730;-86
2022/01/11 08:55:36;;;;;;;;;;;;;;;1.39;47.21;100600.41;5320855;27;33917;-86
2022/01/11 08:58:05;;;;;;;;;;;;;;;1.33;46.56;100594.19;5313665;27;34296;-86
2022/01/11 09:00:33;;;;;;;;;;;;;;;1.84;45.41;100599.53;5315417;27;33807;-86
2022/01/11 09:03:03;;;;;;;;;;;;;;;1.59;46.21;100596.03;5313080;27;34659;-86
2022/01/11 09:05:33;;;;;;;;;;;;;;;1.60;46.24;100600.38;5313243;27;33478;-86
2022/01/11 09:08:04;;;;;;;;;;;;;;;0.87;48.01;100603.50;5318260;27;34782;-86
2022/01/11 09:10:32;;;;;;;;;;;;;;;1.61;46.37;100601.22;5311811;27;36158;-86
2022/01/11 09:13:01;;;;;;;;;;;;;;;1.78;45.52;100609.53;5311841;27;35223;-86
2022/01/11 09:15:32;;;;;;;;;;;;;;;1.24;46.51;100599.81;5312790;27;33088;-86
2022/01/11 09:18:02;;;;;;;;;;;;;;;1.51;46.27;100604.25;5313585;27;33467;-86
2022/01/11 09:20:31;;;;;;;;;;;;;;;2.06;45.37;100602.03;5319618;27;34706;-86
2022/01/11 09:23:00;;;;;;;;;;;;;;;2.14;44.30;100598.06;5318287;27;34535;-86
2022/01/11 09:25:30;;;;;;;;;;;;;;;2.12;44.59;100601.38;5294235;27;33713;-87
2022/01/11 09:27:59;;;;;;;;;;;;;;;2.25;44.09;100597.59;5314466;27;34491;-87
2022/01/11 09:30:28;;;;;;;;;;;;;;;2.43;43.87;100603.31;5293609;27;34740;-86
2022/01/11 09:32:57;;;;;;;;;;;;;;;2.50;43.37;100595.03;5314442;27;34116;-86
2022/01/11 09:35:26;;;;;;;;;;;;;;;2.08;43.97;100605.53;5320693;27;34586;-86
2022/01/11 09:37:54;;;;;;;;;;;;;;;2.16;44.13;100605.81;5314280;27;34978;-86
2022/01/11 09:40:24;;;;;;;;;;;;;;;2.17;43.93;100602.41;5314376;27;34218;-87
2022/01/11 09:42:54;;;;;;;;;;;;;;;2.98;41.79;100600.03;5314470;27;34292;-86
2022/01/11 09:45:23;;;;;;;;;;;;;;;2.58;42.77;100596.97;5314282;27;34099;-86
2022/01/11 09:47:51;;;;;;;;;;;;;;;2.80;42.24;100601.97;5320696;27;33844;-86
2022/01/11 09:50:20;;;;;;;;;;;;;;;2.81;41.98;100601.19;5312982;27;34273;-86
2022/01/11 09:52:51;;;;;;;;;;;;;;;2.71;42.53;100601.72;5314998;27;34090;-86
2022/01/11 09:55:19;;;;;;;;;;;;;;;2.58;42.28;100596.97;5294099;27;33432;-86
2022/01/11 09:57:49;;;;;;;;;;;;;;;2.74;42.66;100594.13;5314985;27;34577;-86
2022/01/11 10:00:30;;;;;;;;;;;;;;;2.75;42.79;100591.62;5315562;27;34428;-87
2022/01/11 10:03:00;;;;;;;;;;;;;;;2.76;42.62;100592.47;5320937;27;34314;-86
2022/01/11 10:05:29;;;;;;;;;;;;;;;3.16;41.99;100589.47;5312916;27;33159;-87
2022/01/11 10:07:58;;;;;;;;;;;;;;;3.18;42.11;100592.09;5313732;27;34864;-86
2022/01/11 10:10:27;;;;;;;;;;;;;;;3.40;41.50;100581.66;5317180;27;33689;-87
2022/01/11 10:12:58;;;;;;;;;;;;;;;3.42;41.37;100587.72;5313980;27;34241;-87
2022/01/11 10:15:27;;;;;;;;;;;;;;;3.38;41.75;100582.44;5300917;27;33192;-87
2022/01/11 10:18:03;;;;;;;;;;;;;;;2.86;42.24;100588.53;5294964;27;33374;-87
2022/01/11 10:20:35;;;;;;;;;;;;;;;3.04;41.82;100601.03;5312444;27;34688;-86
2022/01/11 10:23:05;;;;;;;;;;;;;;;2.89;42.69;100592.03;5311606;27;34239;-86
2022/01/11 10:25:41;;;;;;;;;;;;;;;2.93;42.47;100587.91;5314178;27;33545;-87
2022/01/11 10:28:10;;;;;;;;;;;;;;;2.76;43.36;100587.34;5315591;27;34628;-87
2022/01/11 10:30:40;;;;;;;;;;;;;;;3.31;42.09;100596.78;5320872;27;35133;-87
2022/01/11 10:33:12;;;;;;;;;;;;;;;3.58;40.61;100594.19;5314065;27;33452;-86
2022/01/11 10:35:42;;;;;;;;;;;;;;;3.18;41.54;100592.09;5294344;27;34837;-86
2022/01/11 10:38:15;;;;;;;;;;;;;;;3.50;40.91;100589.63;5313783;27;34082;-87
2022/01/11 10:40:45;;;;;;;;;;;;;;;3.45;41.45;100588.63;5314251;27;33797;-87
2022/01/11 10:43:15;;;;;;;;;;;;;;;3.41;41.73;100587.69;5320713;27;34324;-86
2022/01/11 10:45:45;;;;;;;;;;;;;;;3.25;41.80;100588.03;5313867;27;32031;-87
2022/01/11 10:48:16;;;;;;;;;;;;;;;3.52;41.19;100586.28;5294423;27;34335;-87
2022/01/11 10:50:45;;;;;;;;;;;;;;;3.94;40.35;100597.75;5314767;27;33400;-86
2022/01/11 10:53:15;;;;;;;;;;;;;;;3.49;41.18;100593.03;5313349;27;33762;-86
2022/01/11 10:55:46;;;;;;;;;;;;;;;3.25;41.69;100599.16;5312091;27;33881;-87
2022/01/11 10:58:36;;;;;;;;;;;;;;;3.19;42.15;100588.72;5320761;27;34684;-87
2022/01/11 11:01:05;;;;;;;;;;;;;;;2.71;42.99;100586.34;5314194;27;34236;-86
2022/01/11 11:03:37;;;;;;;;;;;;;;;3.41;41.63;100597.94;5294472;27;32555;-87
2022/01/11 11:06:08;;;;;;;;;;;;;;;3.38;42.09;100596.16;5314234;27;33155;-86
2022/01/11 11:08:40;;;;;;;;;;;;;;;2.96;43.29;100595.69;5313994;27;34911;-87
2022/01/11 11:11:12;;;;;;;;;;;;;;;3.35;42.26;100598.59;5313307;27;33937;-87
2022/01/11 11:13:42;;;;;;;;;;;;;;;3.37;42.04;100596.09;5320622;27;33515;-87
2022/01/11 11:16:12;;;;;;;;;;;;;;;3.31;42.50;100594.22;5313698;27;33283;-87
2022/01/11 11:18:44;;;;;;;;;;;;;;;4.15;40.73;100598.34;5293566;27;34738;-86
2022/01/11 11:21:14;;;;;;;;;;;;;;;3.95;40.63;100600.38;5313865;27;33495;-87
2022/01/11 11:23:43;;;;;;;;;;;;;;;3.80;41.08;100593.09;5313876;27;34233;-87
2022/01/11 11:26:11;;;;;;;;;;;;;;;3.75;41.28;100598.94;5318649;27;33078;-87
2022/01/11 11:28:42;;;;;;;;;;;;;;;3.87;41.14;100593.25;5312287;27;34078;-87
2022/01/11 11:31:10;;;;;;;;;;;;;;;3.54;41.84;100594.03;5313652;27;35080;-86
2022/01/11 11:33:39;;;;;;;;;;;;;;;3.48;41.95;100593.84;5314312;27;34876;-86
2022/01/11 11:36:11;;;;;;;;;;;;;;;3.76;41.73;100598.97;5314076;27;33214;-86
2022/01/11 11:38:43;;;;;;;;;;;;;;;4.10;40.76;100588.78;5313736;27;34094;-87
2022/01/11 11:41:11;;;;;;;;;;;;;;;3.64;41.94;100593.47;5318864;27;33062;-87
2022/01/11 11:43:40;;;;;;;;;;;;;;;3.66;42.27;100591.84;5312475;27;33568;-87
2022/01/11 11:46:08;;;;;;;;;;;;;;;3.87;41.47;100590.69;5312334;27;31421;-87
2022/01/11 11:48:37;;;;;;;;;;;;;;;3.72;41.35;100588.56;5313554;27;34886;-87
2022/01/11 11:51:07;;;;;;;;;;;;;;;3.79;41.46;100587.91;5311835;27;33926;-87
2022/01/11 11:53:37;;;;;;;;;;;;;;;3.40;42.67;100585.94;5318307;27;34193;-87
2022/01/11 11:56:13;;;;;;;;;;;;;;;3.52;42.08;100595.69;5312121;27;33171;-87
2022/01/11 11:58:42;;;;;;;;;;;;;;;4.41;40.00;100583.63;5313219;27;34173;-87
2022/01/11 12:01:30;;;;;;;;;;;;;;;3.94;41.06;100597.75;5312988;27;34016;-87
2022/01/11 12:03:58;;;;;;;;;;;;;;;4.22;40.58;100587.41;5311974;27;34139;-87
2022/01/11 12:06:27;;;;;;;;;;;;;;;3.88;41.12;100588.19;5314716;27;32985;-87
2022/01/11 12:09:04;;;;;;;;;;;;;;;4.16;41.15;100588.97;5320841;27;34106;-86
2022/01/11 12:11:36;;;;;;;;;;;;;;;4.28;40.51;100592.72;5315114;27;34993;-87
2022/01/11 12:14:05;;;;;;;;;;;;;;;4.29;40.82;100591.03;5313349;27;33900;-86
2022/01/11 12:16:41;;;;;;;;;;;;;;;4.68;39.92;100587.75;5314593;27;33446;-86
2022/01/11 12:19:14;;;;;;;;;;;;;;;4.90;39.43;100591.72;5315070;27;33874;-86
2022/01/11 12:21:45;;;;;;;;;;;;;;;4.22;40.36;100589.13;5315048;27;33412;-87
2022/01/11 12:24:15;;;;;;;;;;;;;;;4.48;40.22;100593.25;5321353;27;34014;-86
2022/01/11 12:26:43;;;;;;;;;;;;;;;4.06;41.37;100588.72;5312712;27;33986;-86
2022/01/11 12:29:21;;;;;;;;;;;;;;;3.75;41.82;100592.09;5313873;27;33526;-86
2022/01/11 12:31:52;;;;;;;;;;;;;;;4.17;40.89;100585.56;5313025;27;35276;-86
2022/01/11 12:34:42;;;;;;;;;;;;;;;4.34;40.44;100589.44;5313342;27;34593;-87
2022/01/11 12:37:15;;;;;;;;;;;;;;;4.09;40.99;100593.06;5314564;27;33020;-86
2022/01/11 12:39:58;;;;;;;;;;;;;;;4.15;40.90;100590.63;5320420;27;34159;-87
2022/01/11 12:42:30;;;;;;;;;;;;;;;3.81;41.36;100597.41;5319009;27;32243;-86
2022/01/11 12:47:49;;;;;;;;;;;;;;;4.55;40.27;100602.00;5314293;27;34073;-86
2022/01/11 12:50:18;;;;;;;;;;;;;;;4.59;39.79;100593.53;5314153;27;33904;-87
2022/01/11 12:52:47;;;;;;;;;;;;;;;4.42;40.57;100608.50;5313346;27;34191;-86
2022/01/11 12:55:17;;;;;;;;;;;;;;;3.97;41.14;100598.72;5317683;27;34397;-86
2022/01/11 12:57:45;;;;;;;;;;;;;;;4.22;40.79;100602.81;5321037;27;33982;-86
2022/01/11 13:00:15;;;;;;;;;;;;;;;4.61;39.91;100598.69;5316021;27;33896;-86
2022/01/11 13:02:45;;;;;;;;;;;;;;;5.01;39.09;100597.13;5314322;27;35108;-85
2022/01/11 13:05:17;;;;;;;;;;;;;;;4.60;39.29;100592.69;5314066;27;34325;-86